sensor_id;sensor_type;location;lat;lon;timestamp;temperature;humidity
16829;DHT22;8531;48.078;11.968;2023-03-13T00:00:19;5.40;99.90
16829;DHT22;8531;48.078;11.968;2023-03-13T00:02:45;5.40;99.90
16829;DHT22;8531;48.078;11.968;2023-03-13T00:05:11;5.40;99.90
16829;DHT22;8531;48.078;11.968;2023-03-13T00:07:37;5.40;99.90
16829;DHT22;8531;48.078;11.968;2023-03-13T00:10:04;5.30;99.90
16829;DHT22;8531;48.078;11.968;2023-03-13T00:12:30;5.30;99.90
16829;DHT22;8531;48.078;11.968;2023-03-13T00:14:55;5.20;99.90
16829;DHT22;8531;48.078;11.968;2023-03-13T00:17:21;5.20;99.90
16829;DHT22;8531;48.078;11.968;2023-03-13T00:19:47;5.10;99.90
16829;DHT22;8531;48.078;11.968;2023-03-13T00:22:14;5.10;99.90
16829;DHT22;8531;48.078;11.968;2023-03-13T00:24:39;5.10;99.90
16829;DHT22;8531;48.078;11.968;2023-03-13T00:27:05;5.00;99.90
16829;DHT22;8531;48.078;11.968;2023-03-13T00:29:32;5.10;99.90
16829;DHT22;8531;48.078;11.968;2023-03-13T00:31:58;5.00;99.90
16829;DHT22;8531;48.078;11.968;2023-03-13T00:34:24;5.00;99.90
16829;DHT22;8531;48.078;11.968;2023-03-13T00:36:53;4.90;99.90
16829;DHT22;8531;48.078;11.968;2023-03-13T00:39:19;4.90;99.90
16829;DHT22;8531;48.078;11.968;2023-03-13T00:41:46;4.80;99.90
16829;DHT22;8531;48.078;11.968;2023-03-13T00:44:12;4.70;99.90
16829;DHT22;8531;48.078;11.968;2023-03-13T00:46:38;4.70;99.90
16829;DHT22;8531;48.078;11.968;2023-03-13T00:49:04;4.70;99.90
16829;DHT22;8531;48.078;11.968;2023-03-13T00:51:30;4.70;99.90
16829;DHT22;8531;48.078;11.968;2023-03-13T00:53:57;4.60;99.90
16829;DHT22;8531;48.078;11.968;2023-03-13T00:56:25;4.60;99.90
16829;DHT22;8531;48.078;11.968;2023-03-13T00:58:51;4.60;99.90
16829;DHT22;8531;48.078;11.968;2023-03-13T01:01:21;4.50;99.90
16829;DHT22;8531;48.078;11.968;2023-03-13T01:03:49;4.40;99.90
16829;DHT22;8531;48.078;11.968;2023-03-13T01:06:18;4.50;99.90
16829;DHT22;8531;48.078;11.968;2023-03-13T01:08:45;4.40;99.90
16829;DHT22;8531;48.078;11.968;2023-03-13T01:11:23;4.30;99.90
16829;DHT22;8531;48.078;11.968;2023-03-13T01:13:52;4.40;99.90
16829;DHT22;8531;48.078;11.968;2023-03-13T01:16:19;4.30;99.90
16829;DHT22;8531;48.078;11.968;2023-03-13T01:18:47;4.30;99.90
16829;DHT22;8531;48.078;11.968;2023-03-13T01:21:14;4.30;99.90
16829;DHT22;8531;48.078;11.968;2023-03-13T01:23:41;4.20;99.90
16829;DHT22;8531;48.078;11.968;2023-03-13T01:26:07;4.20;99.90
16829;DHT22;8531;48.078;11.968;2023-03-13T01:28:34;4.10;99.90
16829;DHT22;8531;48.078;11.968;2023-03-13T01:31:01;3.90;99.90
16829;DHT22;8531;48.078;11.968;2023-03-13T01:33:34;4.00;99.90
16829;DHT22;8531;48.078;11.968;2023-03-13T01:36:01;3.90;99.90
16829;DHT22;8531;48.078;11.968;2023-03-13T01:38:26;3.90;99.90
16829;DHT22;8531;48.078;11.968;2023-03-13T01:40:52;3.90;99.90
16829;DHT22;8531;48.078;11.968;2023-03-13T01:43:22;3.90;99.90
16829;DHT22;8531;48.078;11.968;2023-03-13T01:51:02;3.80;99.90
16829;DHT22;8531;48.078;11.968;2023-03-13T01:53:30;3.70;99.90
16829;DHT22;8531;48.078;11.968;2023-03-13T01:55:59;3.70;99.90
16829;DHT22;8531;48.078;11.968;2023-03-13T01:58:27;3.70;99.90
16829;DHT22;8531;48.078;11.968;2023-03-13T02:00:53;3.70;99.90
16829;DHT22;8531;48.078;11.968;2023-03-13T02:03:20;3.70;99.90
16829;DHT22;8531;48.078;11.968;2023-03-13T02:05:47;3.70;99.90
16829;DHT22;8531;48.078;11.968;2023-03-13T02:08:22;3.70;99.90
16829;DHT22;8531;48.078;11.968;2023-03-13T02:11:21;3.70;99.90
16829;DHT22;8531;48.078;11.968;2023-03-13T02:13:49;3.70;99.90
16829;DHT22;8531;48.078;11.968;2023-03-13T02:16:15;3.60;99.90
16829;DHT22;8531;48.078;11.968;2023-03-13T02:18:42;3.60;99.90
16829;DHT22;8531;48.078;11.968;2023-03-13T02:21:15;3.60;99.90
16829;DHT22;8531;48.078;11.968;2023-03-13T02:24:05;3.60;99.90
16829;DHT22;8531;48.078;11.968;2023-03-13T02:26:32;3.50;99.90
16829;DHT22;8531;48.078;11.968;2023-03-13T02:28:58;3.60;99.90
16829;DHT22;8531;48.078;11.968;2023-03-13T02:31:24;3.40;99.90
16829;DHT22;8531;48.078;11.968;2023-03-13T02:33:51;3.70;99.90
16829;DHT22;8531;48.078;11.968;2023-03-13T02:36:18;3.80;99.90
16829;DHT22;8531;48.078;11.968;2023-03-13T02:39:01;3.70;99.90
16829;DHT22;8531;48.078;11.968;2023-03-13T02:41:28;3.80;99.90
16829;DHT22;8531;48.078;11.968;2023-03-13T02:43:55;3.80;99.90
16829;DHT22;8531;48.078;11.968;2023-03-13T02:46:20;3.80;99.90
16829;DHT22;8531;48.078;11.968;2023-03-13T02:48:49;3.90;99.90
16829;DHT22;8531;48.078;11.968;2023-03-13T02:53:57;4.00;99.90
16829;DHT22;8531;48.078;11.968;2023-03-13T02:56:25;3.90;99.90
16829;DHT22;8531;48.078;11.968;2023-03-13T02:58:52;4.00;99.90
16829;DHT22;8531;48.078;11.968;2023-03-13T03:01:18;4.00;99.90
16829;DHT22;8531;48.078;11.968;2023-03-13T03:03:43;3.90;99.90
16829;DHT22;8531;48.078;11.968;2023-03-13T03:06:09;3.90;99.90
16829;DHT22;8531;48.078;11.968;2023-03-13T03:08:35;3.90;99.90
16829;DHT22;8531;48.078;11.968;2023-03-13T03:11:01;3.80;99.90
16829;DHT22;8531;48.078;11.968;2023-03-13T03:13:27;3.90;99.90
16829;DHT22;8531;48.078;11.968;2023-03-13T03:15:53;3.80;99.90
16829;DHT22;8531;48.078;11.968;2023-03-13T03:18:18;3.90;99.90
16829;DHT22;8531;48.078;11.968;2023-03-13T03:20:44;3.90;99.90
16829;DHT22;8531;48.078;11.968;2023-03-13T03:23:10;3.90;99.90
16829;DHT22;8531;48.078;11.968;2023-03-13T03:25:35;4.00;99.90
16829;DHT22;8531;48.078;11.968;2023-03-13T03:28:01;3.90;99.90
16829;DHT22;8531;48.078;11.968;2023-03-13T03:30:27;4.00;99.90
16829;DHT22;8531;48.078;11.968;2023-03-13T03:32:53;3.90;99.90
16829;DHT22;8531;48.078;11.968;2023-03-13T03:35:18;4.00;99.90
16829;DHT22;8531;48.078;11.968;2023-03-13T03:37:44;4.00;99.90
16829;DHT22;8531;48.078;11.968;2023-03-13T03:40:10;4.00;99.90
16829;DHT22;8531;48.078;11.968;2023-03-13T03:42:36;4.10;99.90
16829;DHT22;8531;48.078;11.968;2023-03-13T03:45:03;4.10;99.90
16829;DHT22;8531;48.078;11.968;2023-03-13T03:47:28;4.00;99.90
16829;DHT22;8531;48.078;11.968;2023-03-13T03:49:54;4.00;99.90
16829;DHT22;8531;48.078;11.968;2023-03-13T03:52:20;4.00;99.90
16829;DHT22;8531;48.078;11.968;2023-03-13T03:54:45;4.10;99.90
16829;DHT22;8531;48.078;11.968;2023-03-13T03:57:11;4.20;99.90
16829;DHT22;8531;48.078;11.968;2023-03-13T03:59:36;4.10;99.90
16829;DHT22;8531;48.078;11.968;2023-03-13T04:02:03;4.10;99.90
16829;DHT22;8531;48.078;11.968;2023-03-13T04:04:28;4.10;99.90
16829;DHT22;8531;48.078;11.968;2023-03-13T04:06:54;4.10;99.90
16829;DHT22;8531;48.078;11.968;2023-03-13T04:09:20;4.10;99.90
16829;DHT22;8531;48.078;11.968;2023-03-13T04:11:45;4.20;99.90
16829;DHT22;8531;48.078;11.968;2023-03-13T04:14:11;4.20;99.90
16829;DHT22;8531;48.078;11.968;2023-03-13T04:16:36;4.10;99.90
16829;DHT22;8531;48.078;11.968;2023-03-13T04:19:02;4.10;99.90
16829;DHT22;8531;48.078;11.968;2023-03-13T04:21:28;4.10;99.90
16829;DHT22;8531;48.078;11.968;2023-03-13T04:23:53;4.10;99.90
16829;DHT22;8531;48.078;11.968;2023-03-13T04:26:19;4.10;99.90
16829;DHT22;8531;48.078;11.968;2023-03-13T04:28:45;4.10;99.90
16829;DHT22;8531;48.078;11.968;2023-03-13T04:31:10;4.10;99.90
16829;DHT22;8531;48.078;11.968;2023-03-13T04:33:36;4.10;99.90
16829;DHT22;8531;48.078;11.968;2023-03-13T04:36:02;4.00;99.90
16829;DHT22;8531;48.078;11.968;2023-03-13T04:38:28;4.10;99.90
16829;DHT22;8531;48.078;11.968;2023-03-13T04:40:54;3.90;99.90
16829;DHT22;8531;48.078;11.968;2023-03-13T04:43:19;3.80;99.90
16829;DHT22;8531;48.078;11.968;2023-03-13T04:45:45;3.80;99.90
16829;DHT22;8531;48.078;11.968;2023-03-13T04:48:11;3.80;99.90
16829;DHT22;8531;48.078;11.968;2023-03-13T04:50:37;3.70;99.90
16829;DHT22;8531;48.078;11.968;2023-03-13T04:53:03;3.70;99.90
16829;DHT22;8531;48.078;11.968;2023-03-13T04:55:29;3.70;99.90
16829;DHT22;8531;48.078;11.968;2023-03-13T04:57:54;3.80;99.90
16829;DHT22;8531;48.078;11.968;2023-03-13T05:00:20;3.80;99.90
16829;DHT22;8531;48.078;11.968;2023-03-13T05:02:46;3.80;99.90
16829;DHT22;8531;48.078;11.968;2023-03-13T05:05:12;3.70;99.90
16829;DHT22;8531;48.078;11.968;2023-03-13T05:07:37;3.70;99.90
16829;DHT22;8531;48.078;11.968;2023-03-13T05:10:04;3.70;99.90
16829;DHT22;8531;48.078;11.968;2023-03-13T05:12:29;3.80;99.90
16829;DHT22;8531;48.078;11.968;2023-03-13T05:14:55;3.80;99.90
16829;DHT22;8531;48.078;11.968;2023-03-13T05:17:21;3.80;99.90
16829;DHT22;8531;48.078;11.968;2023-03-13T05:19:46;3.80;99.90
16829;DHT22;8531;48.078;11.968;2023-03-13T05:22:12;3.90;99.90
16829;DHT22;8531;48.078;11.968;2023-03-13T05:24:38;3.90;99.90
16829;DHT22;8531;48.078;11.968;2023-03-13T05:27:03;3.90;99.90
16829;DHT22;8531;48.078;11.968;2023-03-13T05:29:29;4.00;99.90
16829;DHT22;8531;48.078;11.968;2023-03-13T05:31:55;4.00;99.90
16829;DHT22;8531;48.078;11.968;2023-03-13T05:34:20;4.00;99.90
16829;DHT22;8531;48.078;11.968;2023-03-13T05:36:46;4.00;99.90
16829;DHT22;8531;48.078;11.968;2023-03-13T05:39:12;4.00;99.90
16829;DHT22;8531;48.078;11.968;2023-03-13T05:41:37;4.00;99.90
16829;DHT22;8531;48.078;11.968;2023-03-13T05:44:03;4.00;99.90
16829;DHT22;8531;48.078;11.968;2023-03-13T05:46:29;4.00;99.90
16829;DHT22;8531;48.078;11.968;2023-03-13T05:48:55;4.00;99.90
16829;DHT22;8531;48.078;11.968;2023-03-13T05:51:21;4.00;99.90
16829;DHT22;8531;48.078;11.968;2023-03-13T05:53:46;4.10;99.90
16829;DHT22;8531;48.078;11.968;2023-03-13T05:56:12;4.10;99.90
16829;DHT22;8531;48.078;11.968;2023-03-13T05:58:38;4.20;99.90
16829;DHT22;8531;48.078;11.968;2023-03-13T06:01:11;4.10;99.90
16829;DHT22;8531;48.078;11.968;2023-03-13T06:03:36;4.20;99.90
16829;DHT22;8531;48.078;11.968;2023-03-13T06:06:02;4.20;99.90
16829;DHT22;8531;48.078;11.968;2023-03-13T06:08:28;4.20;99.90
16829;DHT22;8531;48.078;11.968;2023-03-13T06:10:54;4.20;99.90
16829;DHT22;8531;48.078;11.968;2023-03-13T06:13:19;4.30;99.90
16829;DHT22;8531;48.078;11.968;2023-03-13T06:15:55;4.30;99.90
16829;DHT22;8531;48.078;11.968;2023-03-13T06:18:21;4.30;99.90
16829;DHT22;8531;48.078;11.968;2023-03-13T06:20:48;4.40;99.90
16829;DHT22;8531;48.078;11.968;2023-03-13T06:23:14;4.40;99.90
16829;DHT22;8531;48.078;11.968;2023-03-13T06:25:40;4.40;99.90
16829;DHT22;8531;48.078;11.968;2023-03-13T06:28:06;4.40;99.90
16829;DHT22;8531;48.078;11.968;2023-03-13T06:30:32;4.50;99.90
16829;DHT22;8531;48.078;11.968;2023-03-13T06:32:57;4.50;99.90
16829;DHT22;8531;48.078;11.968;2023-03-13T06:35:23;4.50;99.90
16829;DHT22;8531;48.078;11.968;2023-03-13T06:37:49;4.60;99.90
16829;DHT22;8531;48.078;11.968;2023-03-13T06:40:15;4.70;99.90
16829;DHT22;8531;48.078;11.968;2023-03-13T06:42:40;4.70;99.90
16829;DHT22;8531;48.078;11.968;2023-03-13T06:45:06;4.80;99.90
16829;DHT22;8531;48.078;11.968;2023-03-13T06:47:32;4.80;99.90
16829;DHT22;8531;48.078;11.968;2023-03-13T06:49:58;5.00;99.90
16829;DHT22;8531;48.078;11.968;2023-03-13T06:52:24;5.00;99.90
16829;DHT22;8531;48.078;11.968;2023-03-13T06:54:50;5.00;99.90
16829;DHT22;8531;48.078;11.968;2023-03-13T06:57:15;5.10;99.90
16829;DHT22;8531;48.078;11.968;2023-03-13T06:59:41;5.10;99.90
16829;DHT22;8531;48.078;11.968;2023-03-13T07:02:10;5.10;99.90
16829;DHT22;8531;48.078;11.968;2023-03-13T07:04:36;5.10;99.90
16829;DHT22;8531;48.078;11.968;2023-03-13T07:07:02;5.20;99.90
16829;DHT22;8531;48.078;11.968;2023-03-13T07:09:27;5.20;99.90
16829;DHT22;8531;48.078;11.968;2023-03-13T07:11:53;5.10;99.90
16829;DHT22;8531;48.078;11.968;2023-03-13T07:14:19;5.10;99.90
16829;DHT22;8531;48.078;11.968;2023-03-13T07:16:45;5.10;99.90
16829;DHT22;8531;48.078;11.968;2023-03-13T07:19:11;5.20;99.90
16829;DHT22;8531;48.078;11.968;2023-03-13T07:21:36;5.30;99.90
16829;DHT22;8531;48.078;11.968;2023-03-13T07:24:02;5.40;99.90
16829;DHT22;8531;48.078;11.968;2023-03-13T07:26:28;5.30;99.90
16829;DHT22;8531;48.078;11.968;2023-03-13T07:28:55;5.30;99.90
16829;DHT22;8531;48.078;11.968;2023-03-13T07:31:20;5.40;99.90
16829;DHT22;8531;48.078;11.968;2023-03-13T07:33:48;5.40;99.90
16829;DHT22;8531;48.078;11.968;2023-03-13T07:36:17;5.40;99.90
16829;DHT22;8531;48.078;11.968;2023-03-13T07:38:42;5.40;99.90
16829;DHT22;8531;48.078;11.968;2023-03-13T07:41:13;5.50;99.90
16829;DHT22;8531;48.078;11.968;2023-03-13T07:43:40;5.60;99.90
16829;DHT22;8531;48.078;11.968;2023-03-13T07:46:07;5.50;99.90
16829;DHT22;8531;48.078;11.968;2023-03-13T07:48:35;5.60;99.90
16829;DHT22;8531;48.078;11.968;2023-03-13T07:51:02;5.60;99.90
16829;DHT22;8531;48.078;11.968;2023-03-13T07:53:28;5.70;99.90
16829;DHT22;8531;48.078;11.968;2023-03-13T07:55:59;5.70;99.90
16829;DHT22;8531;48.078;11.968;2023-03-13T07:58:30;5.70;99.90
16829;DHT22;8531;48.078;11.968;2023-03-13T08:00:57;5.70;99.90
16829;DHT22;8531;48.078;11.968;2023-03-13T08:03:23;5.80;99.90
16829;DHT22;8531;48.078;11.968;2023-03-13T08:06:10;5.90;99.90
16829;DHT22;8531;48.078;11.968;2023-03-13T08:08:37;5.90;99.90
16829;DHT22;8531;48.078;11.968;2023-03-13T08:11:09;5.90;99.90
16829;DHT22;8531;48.078;11.968;2023-03-13T08:13:36;6.00;99.90
16829;DHT22;8531;48.078;11.968;2023-03-13T08:16:07;6.00;99.90
16829;DHT22;8531;48.078;11.968;2023-03-13T08:18:34;6.00;99.90
16829;DHT22;8531;48.078;11.968;2023-03-13T08:21:03;6.00;99.90
16829;DHT22;8531;48.078;11.968;2023-03-13T08:23:30;6.00;99.90
16829;DHT22;8531;48.078;11.968;2023-03-13T08:25:55;6.10;99.90
16829;DHT22;8531;48.078;11.968;2023-03-13T08:28:25;6.10;99.90
16829;DHT22;8531;48.078;11.968;2023-03-13T08:30:51;6.30;99.90
16829;DHT22;8531;48.078;11.968;2023-03-13T08:33:16;6.30;99.90
16829;DHT22;8531;48.078;11.968;2023-03-13T08:35:42;6.40;99.90
16829;DHT22;8531;48.078;11.968;2023-03-13T08:38:08;6.40;99.90
16829;DHT22;8531;48.078;11.968;2023-03-13T08:40:33;6.50;99.90
16829;DHT22;8531;48.078;11.968;2023-03-13T08:42:59;6.50;99.90
16829;DHT22;8531;48.078;11.968;2023-03-13T08:45:25;6.60;99.90
16829;DHT22;8531;48.078;11.968;2023-03-13T08:47:53;6.60;99.90
16829;DHT22;8531;48.078;11.968;2023-03-13T08:50:19;6.70;99.90
16829;DHT22;8531;48.078;11.968;2023-03-13T08:52:45;6.80;99.90
16829;DHT22;8531;48.078;11.968;2023-03-13T08:55:10;6.80;99.90
16829;DHT22;8531;48.078;11.968;2023-03-13T08:57:36;6.70;99.90
16829;DHT22;8531;48.078;11.968;2023-03-13T09:00:03;6.80;99.90
16829;DHT22;8531;48.078;11.968;2023-03-13T09:02:31;6.70;99.90
16829;DHT22;8531;48.078;11.968;2023-03-13T09:04:57;6.80;99.90
16829;DHT22;8531;48.078;11.968;2023-03-13T09:07:22;6.90;99.90
16829;DHT22;8531;48.078;11.968;2023-03-13T09:09:48;6.90;99.90
16829;DHT22;8531;48.078;11.968;2023-03-13T09:12:14;6.90;99.90
16829;DHT22;8531;48.078;11.968;2023-03-13T09:14:40;6.90;99.90
16829;DHT22;8531;48.078;11.968;2023-03-13T09:17:07;6.90;99.90
16829;DHT22;8531;48.078;11.968;2023-03-13T09:19:33;7.00;99.90
16829;DHT22;8531;48.078;11.968;2023-03-13T09:21:58;7.10;99.90
16829;DHT22;8531;48.078;11.968;2023-03-13T09:24:24;7.20;99.90
16829;DHT22;8531;48.078;11.968;2023-03-13T09:26:50;7.10;99.90
16829;DHT22;8531;48.078;11.968;2023-03-13T09:29:17;7.20;99.90
16829;DHT22;8531;48.078;11.968;2023-03-13T09:31:42;7.30;99.90
16829;DHT22;8531;48.078;11.968;2023-03-13T09:34:08;7.40;99.90
16829;DHT22;8531;48.078;11.968;2023-03-13T09:36:34;7.40;99.90
16829;DHT22;8531;48.078;11.968;2023-03-13T09:39:00;7.50;99.90
16829;DHT22;8531;48.078;11.968;2023-03-13T09:44:32;7.90;99.90
16829;DHT22;8531;48.078;11.968;2023-03-13T09:49:51;8.30;99.90
16829;DHT22;8531;48.078;11.968;2023-03-13T09:52:39;8.50;99.90
16829;DHT22;8531;48.078;11.968;2023-03-13T09:55:30;8.70;99.90
16829;DHT22;8531;48.078;11.968;2023-03-13T09:58:13;8.90;99.90
16829;DHT22;8531;48.078;11.968;2023-03-13T10:00:44;9.20;99.90
16829;DHT22;8531;48.078;11.968;2023-03-13T10:03:16;9.40;99.90
16829;DHT22;8531;48.078;11.968;2023-03-13T10:06:18;9.60;99.90
16829;DHT22;8531;48.078;11.968;2023-03-13T10:08:44;9.80;99.90
16829;DHT22;8531;48.078;11.968;2023-03-13T10:11:39;10.10;99.90
16829;DHT22;8531;48.078;11.968;2023-03-13T10:14:12;10.40;99.90
16829;DHT22;8531;48.078;11.968;2023-03-13T10:16:48;10.50;99.90
16829;DHT22;8531;48.078;11.968;2023-03-13T10:19:31;11.00;99.90
16829;DHT22;8531;48.078;11.968;2023-03-13T10:21:59;11.40;99.90
16829;DHT22;8531;48.078;11.968;2023-03-13T10:24:37;11.60;99.90
16829;DHT22;8531;48.078;11.968;2023-03-13T10:27:06;11.90;99.90
16829;DHT22;8531;48.078;11.968;2023-03-13T10:29:32;12.00;99.90
16829;DHT22;8531;48.078;11.968;2023-03-13T10:32:02;12.10;99.90
16829;DHT22;8531;48.078;11.968;2023-03-13T10:34:55;12.40;99.90
16829;DHT22;8531;48.078;11.968;2023-03-13T10:37:29;12.40;99.90
16829;DHT22;8531;48.078;11.968;2023-03-13T10:40:20;12.50;99.90
16829;DHT22;8531;48.078;11.968;2023-03-13T10:42:51;12.70;99.90
16829;DHT22;8531;48.078;11.968;2023-03-13T10:45:19;12.80;99.90
16829;DHT22;8531;48.078;11.968;2023-03-13T10:47:54;12.80;99.90
16829;DHT22;8531;48.078;11.968;2023-03-13T10:50:23;12.80;99.90
16829;DHT22;8531;48.078;11.968;2023-03-13T10:52:50;12.80;99.90
16829;DHT22;8531;48.078;11.968;2023-03-13T11:00:37;13.00;99.90
16829;DHT22;8531;48.078;11.968;2023-03-13T11:03:21;13.10;99.90
16829;DHT22;8531;48.078;11.968;2023-03-13T11:05:58;13.10;99.90
16829;DHT22;8531;48.078;11.968;2023-03-13T11:08:35;13.20;99.90
16829;DHT22;8531;48.078;11.968;2023-03-13T11:11:03;13.10;99.90
16829;DHT22;8531;48.078;11.968;2023-03-13T11:13:40;13.10;99.90
16829;DHT22;8531;48.078;11.968;2023-03-13T11:16:27;13.10;99.90
16829;DHT22;8531;48.078;11.968;2023-03-13T11:21:48;13.20;99.90
16829;DHT22;8531;48.078;11.968;2023-03-13T11:27:26;13.80;99.90
16829;DHT22;8531;48.078;11.968;2023-03-13T11:30:06;14.00;99.90
16829;DHT22;8531;48.078;11.968;2023-03-13T11:38:18;14.70;99.90
16829;DHT22;8531;48.078;11.968;2023-03-13T11:51:45;15.40;99.90
16829;DHT22;8531;48.078;11.968;2023-03-13T11:54:54;15.60;99.90
16829;DHT22;8531;48.078;11.968;2023-03-13T11:57:29;15.90;99.90
16829;DHT22;8531;48.078;11.968;2023-03-13T12:00:18;15.80;99.90
16829;DHT22;8531;48.078;11.968;2023-03-13T12:03:05;15.90;99.90
16829;DHT22;8531;48.078;11.968;2023-03-13T12:05:46;16.00;99.90
16829;DHT22;8531;48.078;11.968;2023-03-13T12:08:45;16.10;99.90
16829;DHT22;8531;48.078;11.968;2023-03-13T12:14:32;16.70;99.90
16829;DHT22;8531;48.078;11.968;2023-03-13T12:17:07;17.00;99.90
16829;DHT22;8531;48.078;11.968;2023-03-13T12:19:54;17.10;99.90
16829;DHT22;8531;48.078;11.968;2023-03-13T12:25:23;17.20;99.90
16829;DHT22;8531;48.078;11.968;2023-03-13T12:27:56;17.50;99.90
16829;DHT22;8531;48.078;11.968;2023-03-13T12:30:46;17.70;99.90
16829;DHT22;8531;48.078;11.968;2023-03-13T12:33:22;17.50;99.90
16829;DHT22;8531;48.078;11.968;2023-03-13T12:41:41;17.60;99.90
16829;DHT22;8531;48.078;11.968;2023-03-13T12:44:15;17.80;99.90
16829;DHT22;8531;48.078;11.968;2023-03-13T12:46:45;18.10;99.90
16829;DHT22;8531;48.078;11.968;2023-03-13T13:00:22;18.10;99.90
16829;DHT22;8531;48.078;11.968;2023-03-13T13:06:02;18.50;99.90
16829;DHT22;8531;48.078;11.968;2023-03-13T13:08:38;18.90;99.90
16829;DHT22;8531;48.078;11.968;2023-03-13T13:16:32;19.10;99.90
16829;DHT22;8531;48.078;11.968;2023-03-13T13:24:55;19.20;99.90
16829;DHT22;8531;48.078;11.968;2023-03-13T13:32:46;19.50;99.90
16829;DHT22;8531;48.078;11.968;2023-03-13T13:35:30;19.50;99.90
16829;DHT22;8531;48.078;11.968;2023-03-13T13:38:28;19.30;99.90
16829;DHT22;8531;48.078;11.968;2023-03-13T13:43:41;19.40;99.90
16829;DHT22;8531;48.078;11.968;2023-03-13T13:51:35;19.50;99.90
16829;DHT22;8531;48.078;11.968;2023-03-13T13:54:04;19.40;99.90
16829;DHT22;8531;48.078;11.968;2023-03-13T13:56:58;19.40;99.90
16829;DHT22;8531;48.078;11.968;2023-03-13T13:59:35;19.70;99.90
16829;DHT22;8531;48.078;11.968;2023-03-13T14:02:18;19.90;99.90
16829;DHT22;8531;48.078;11.968;2023-03-13T14:05:00;20.30;99.90
16829;DHT22;8531;48.078;11.968;2023-03-13T14:12:54;19.90;99.90
16829;DHT22;8531;48.078;11.968;2023-03-13T14:15:25;20.00;99.90
16829;DHT22;8531;48.078;11.968;2023-03-13T14:17:58;20.10;99.90
16829;DHT22;8531;48.078;11.968;2023-03-13T14:20:37;20.00;99.90
16829;DHT22;8531;48.078;11.968;2023-03-13T14:23:07;19.50;99.90
16829;DHT22;8531;48.078;11.968;2023-03-13T14:28:21;19.80;99.90
16829;DHT22;8531;48.078;11.968;2023-03-13T14:30:49;19.90;99.90
16829;DHT22;8531;48.078;11.968;2023-03-13T14:33:15;19.90;99.90
16829;DHT22;8531;48.078;11.968;2023-03-13T14:35:41;20.10;99.90
16829;DHT22;8531;48.078;11.968;2023-03-13T14:38:24;20.20;99.90
16829;DHT22;8531;48.078;11.968;2023-03-13T14:40:51;20.10;99.90
16829;DHT22;8531;48.078;11.968;2023-03-13T14:45:57;20.10;99.90
16829;DHT22;8531;48.078;11.968;2023-03-13T14:48:28;19.90;99.90
16829;DHT22;8531;48.078;11.968;2023-03-13T14:51:08;19.80;99.90
16829;DHT22;8531;48.078;11.968;2023-03-13T14:53:34;20.10;99.90
16829;DHT22;8531;48.078;11.968;2023-03-13T14:56:14;20.20;99.90
16829;DHT22;8531;48.078;11.968;2023-03-13T14:58:44;20.10;99.90
16829;DHT22;8531;48.078;11.968;2023-03-13T15:01:23;20.50;99.90
16829;DHT22;8531;48.078;11.968;2023-03-13T15:03:49;20.00;99.90
16829;DHT22;8531;48.078;11.968;2023-03-13T15:06:21;20.20;99.90
16829;DHT22;8531;48.078;11.968;2023-03-13T15:11:33;20.20;99.90
16829;DHT22;8531;48.078;11.968;2023-03-13T15:13:59;20.00;99.90
16829;DHT22;8531;48.078;11.968;2023-03-13T15:16:26;19.70;99.90
16829;DHT22;8531;48.078;11.968;2023-03-13T15:18:53;19.50;99.90
16829;DHT22;8531;48.078;11.968;2023-03-13T15:21:26;18.90;99.90
16829;DHT22;8531;48.078;11.968;2023-03-13T15:24:01;18.60;99.90
16829;DHT22;8531;48.078;11.968;2023-03-13T15:26:28;18.60;99.90
16829;DHT22;8531;48.078;11.968;2023-03-13T15:28:54;18.20;99.90
16829;DHT22;8531;48.078;11.968;2023-03-13T15:31:25;18.10;99.90
16829;DHT22;8531;48.078;11.968;2023-03-13T15:33:57;18.10;99.90
16829;DHT22;8531;48.078;11.968;2023-03-13T15:36:25;17.70;99.90
16829;DHT22;8531;48.078;11.968;2023-03-13T15:38:51;17.60;99.90
16829;DHT22;8531;48.078;11.968;2023-03-13T15:41:18;17.50;99.90
16829;DHT22;8531;48.078;11.968;2023-03-13T15:43:44;17.40;99.90
16829;DHT22;8531;48.078;11.968;2023-03-13T15:46:12;17.30;99.90
16829;DHT22;8531;48.078;11.968;2023-03-13T15:48:39;17.20;99.90
16829;DHT22;8531;48.078;11.968;2023-03-13T15:51:08;17.10;99.90
16829;DHT22;8531;48.078;11.968;2023-03-13T15:53:35;17.00;99.90
16829;DHT22;8531;48.078;11.968;2023-03-13T15:56:02;16.80;99.90
16829;DHT22;8531;48.078;11.968;2023-03-13T15:58:28;16.60;99.90
16829;DHT22;8531;48.078;11.968;2023-03-13T16:00:55;16.50;99.90
16829;DHT22;8531;48.078;11.968;2023-03-13T16:03:23;16.40;99.90
16829;DHT22;8531;48.078;11.968;2023-03-13T16:05:50;16.40;99.90
16829;DHT22;8531;48.078;11.968;2023-03-13T16:08:23;16.30;99.90
16829;DHT22;8531;48.078;11.968;2023-03-13T16:10:50;16.30;99.90
16829;DHT22;8531;48.078;11.968;2023-03-13T16:13:16;16.40;99.90
16829;DHT22;8531;48.078;11.968;2023-03-13T16:15:43;16.50;99.90
16829;DHT22;8531;48.078;11.968;2023-03-13T16:18:20;16.50;99.90
16829;DHT22;8531;48.078;11.968;2023-03-13T16:20:46;16.70;99.90
16829;DHT22;8531;48.078;11.968;2023-03-13T16:23:12;16.90;99.90
16829;DHT22;8531;48.078;11.968;2023-03-13T16:25:39;17.00;99.90
16829;DHT22;8531;48.078;11.968;2023-03-13T16:28:05;16.60;99.90
16829;DHT22;8531;48.078;11.968;2023-03-13T16:30:35;16.60;99.90
16829;DHT22;8531;48.078;11.968;2023-03-13T16:33:02;16.40;99.90
16829;DHT22;8531;48.078;11.968;2023-03-13T16:35:28;16.20;99.90
16829;DHT22;8531;48.078;11.968;2023-03-13T16:37:55;16.00;99.90
16829;DHT22;8531;48.078;11.968;2023-03-13T16:40:24;15.80;99.90
16829;DHT22;8531;48.078;11.968;2023-03-13T16:42:50;15.70;99.90
16829;DHT22;8531;48.078;11.968;2023-03-13T16:45:16;15.60;99.90
16829;DHT22;8531;48.078;11.968;2023-03-13T16:47:43;15.50;99.90
16829;DHT22;8531;48.078;11.968;2023-03-13T16:50:21;15.40;99.90
16829;DHT22;8531;48.078;11.968;2023-03-13T16:52:48;15.40;99.90
16829;DHT22;8531;48.078;11.968;2023-03-13T16:55:13;15.30;99.90
16829;DHT22;8531;48.078;11.968;2023-03-13T16:57:39;15.20;99.90
16829;DHT22;8531;48.078;11.968;2023-03-13T17:00:25;15.20;99.90
16829;DHT22;8531;48.078;11.968;2023-03-13T17:02:51;15.10;99.90
16829;DHT22;8531;48.078;11.968;2023-03-13T17:05:17;15.10;99.90
16829;DHT22;8531;48.078;11.968;2023-03-13T17:07:47;15.00;99.90
16829;DHT22;8531;48.078;11.968;2023-03-13T17:10:18;14.90;99.90
16829;DHT22;8531;48.078;11.968;2023-03-13T17:12:44;14.90;99.90
16829;DHT22;8531;48.078;11.968;2023-03-13T17:15:10;14.90;99.90
16829;DHT22;8531;48.078;11.968;2023-03-13T17:17:37;14.80;99.90
16829;DHT22;8531;48.078;11.968;2023-03-13T17:20:03;14.80;99.90
16829;DHT22;8531;48.078;11.968;2023-03-13T17:22:34;14.70;99.90
16829;DHT22;8531;48.078;11.968;2023-03-13T17:25:00;14.70;99.90
16829;DHT22;8531;48.078;11.968;2023-03-13T17:27:25;14.60;99.90
16829;DHT22;8531;48.078;11.968;2023-03-13T17:29:51;14.50;99.90
16829;DHT22;8531;48.078;11.968;2023-03-13T17:32:17;14.40;99.90
16829;DHT22;8531;48.078;11.968;2023-03-13T17:34:42;14.40;99.90
16829;DHT22;8531;48.078;11.968;2023-03-13T17:37:16;14.40;99.90